Date,TemperatureHighF,TemperatureAvgF,TemperatureLowF,DewpointHighF,DewpointAvgF,DewpointLowF,HumidityHigh,HumidityAvg,HumidityLow,PressureMaxIn,PressureMinIn,WindSpeedMaxMPH,WindSpeedAvgMPH,GustSpeedMaxMPH,PrecipitationSumIn
2013-1-1,75.7,64.5,55.3,60.5,54.6,48.2,86,71,54,30.24,30.06,15,2,15,0.00
2013-1-2,80.4,69.7,60.6,63.5,59.4,53.4,84,71,50,30.11,29.99,12,1,12,0.00
2013-1-3,76.8,66.8,60.6,64.6,60.1,53.9,87,79,63,30.17,30.04,13,2,13,0.00
2013-1-4,68.5,66.0,63.1,63.3,60.9,58.0,86,84,81,30.27,30.12,13,2,13,0.00
2013-1-5,74.5,68.3,62.0,69.8,62.0,55.3,96,81,68,30.29,30.18,12,2,12,0.17
2013-1-6,75.8,70.4,63.8,71.5,68.0,61.7,100,92,85,30.22,30.07,9,1,9,0.01
2013-1-7,72.8,69.3,65.2,67.8,65.9,62.1,98,89,81,30.21,30.10,17,3,17,0.06
2013-1-8,77.7,71.6,67.0,71.7,69.0,65.9,100,92,80,30.24,30.11,11,1,11,0.09
2013-1-9,79.5,74.5,70.3,73.5,71.0,68.3,97,89,79,30.32,30.20,20,4,20,0.01
2013-1-10,79.0,74.2,70.6,71.4,68.6,65.6,92,83,70,30.34,30.23,20,4,20,0.00
2013-1-11,79.0,73.0,68.1,69.7,67.8,63.8,95,84,69,30.30,30.18,18,3,18,0.00
2013-1-12,78.5,71.0,63.4,69.5,65.7,60.4,98,84,71,30.22,30.12,14,2,14,0.01
2013-1-13,78.1,72.5,67.3,67.9,65.7,63.5,90,80,68,30.17,30.08,16,3,16,0.00
2013-1-14,79.0,71.0,61.9,69.3,65.0,58.2,97,82,70,30.20,30.14,15,2,15,0.00
2013-1-15,78.6,70.8,63.7,69.9,65.0,60.1,97,82,70,30.17,30.07,17,2,17,0.00
2013-1-16,80.6,70.9,61.1,69.0,64.7,57.6,97,81,63,30.12,30.02,17,2,17,0.00
2013-1-17,82.5,70.3,56.5,70.4,63.5,47.9,93,80,59,30.11,29.93,23,5,23,0.00
2013-1-18,69.0,59.7,45.9,61.5,51.7,38.5,87,75,65,30.26,30.10,27,6,27,0.05
2013-1-19,74.0,68.5,64.7,72.0,63.9,59.4,100,86,75,30.26,30.13,21,5,21,0.28
2013-1-20,72.7,67.5,63.2,67.6,65.0,61.9,99,92,80,30.18,30.06,15,2,15,0.00
2013-1-21,73.7,67.7,62.8,69.6,65.2,60.6,99,92,83,30.09,29.99,11,1,11,0.11
2013-1-22,68.0,63.3,59.8,61.3,54.1,48.6,95,73,59,30.27,30.02,25,4,25,0.00
2013-1-23,66.5,59.1,52.0,55.8,49.7,42.5,83,71,62,30.35,30.25,16,3,16,0.00
2013-1-24,68.9,58.2,46.6,55.2,49.0,42.0,87,73,51,30.34,30.24,11,1,11,0.00
2013-1-25,72.5,61.6,51.7,58.7,53.9,46.0,94,77,52,30.32,30.19,13,1,13,0.01
2013-1-26,71.3,61.8,52.1,59.8,54.0,46.3,88,76,62,30.29,30.18,11,1,11,0.00
2013-1-27,72.7,64.2,53.2,65.7,58.6,49.4,99,82,64,30.33,30.23,17,1,17,0.01
2013-1-28,74.0,71.3,69.6,68.9,66.1,63.4,89,83,78,30.36,30.26,15,3,17,0.00
2013-1-29,77.4,70.5,63.2,70.1,66.2,60.0,98,87,75,30.28,30.13,21,3,21,0.01
2013-1-30,82.8,73.2,65.4,68.5,65.4,61.9,96,78,57,30.15,29.94,24,4,24,0.01
2013-1-31,70.1,62.1,51.4,67.3,52.4,34.5,94,72,44,30.22,29.92,22,4,22,0.08
2013-2-1,63.4,54.7,46.1,50.7,41.9,34.1,77,62,47,30.34,30.20,16,3,16,0.00
2013-2-2,68.1,57.7,45.3,56.9,49.4,39.4,87,74,60,30.30,30.14,12,2,12,0.00
2013-2-3,67.1,58.7,50.2,53.9,49.0,40.3,89,71,45,30.21,30.07,15,1,15,0.00
2013-2-4,68.5,56.9,45.1,53.4,46.6,40.0,88,69,52,30.15,30.03,11,2,11,0.00
2013-2-5,74.3,61.0,48.5,57.9,49.8,39.6,81,67,47,30.12,30.02,12,2,12,0.00
2013-2-6,77.0,66.5,56.6,67.7,60.4,52.7,95,81,69,30.14,30.03,15,2,15,0.00
2013-2-7,78.5,71.3,61.2,68.2,63.9,57.3,93,78,66,30.11,29.93,22,4,22,0.01
2013-2-8,78.5,69.4,63.6,65.9,63.0,59.6,92,81,59,30.09,29.89,14,2,14,0.00
2013-2-9,71.4,66.1,57.9,63.2,60.1,55.3,94,81,71,30.22,30.06,17,3,17,0.01
2013-2-10,75.5,70.5,66.8,62.3,59.9,57.3,77,69,59,30.31,30.19,21,5,21,0.00
2013-2-11,79.3,72.3,64.8,66.8,63.7,55.4,89,75,60,30.25,30.11,19,4,19,0.00
2013-2-12,84.0,73.1,62.0,70.0,65.5,58.1,95,78,54,30.14,29.97,16,3,16,0.00
2013-2-13,85.8,75.6,66.7,72.5,67.7,59.9,96,78,53,30.01,29.86,22,5,22,0.00
2013-2-14,74.2,65.5,60.5,67.9,61.6,58.8,97,87,76,30.07,29.92,13,1,13,1.21
2013-2-15,65.8,61.8,58.8,61.7,59.7,57.5,100,93,85,30.08,29.96,11,1,11,0.09
2013-2-16,69.4,61.3,50.1,60.2,51.1,35.8,97,71,44,30.10,29.89,24,4,24,0.00
2013-2-17,51.8,46.6,39.5,39.6,27.8,20.8,68,49,36,30.36,30.09,26,4,26,0.00
2013-2-18,65.8,54.2,40.2,52.9,41.3,26.0,79,62,53,30.37,30.24,18,3,18,0.00
2013-2-19,78.3,65.9,51.4,62.6,56.2,46.0,96,72,51,30.25,30.08,18,2,20,0.01
2013-2-20,70.8,65.1,57.4,64.7,60.2,53.1,95,84,76,30.15,30.05,13,2,13,0.00
2013-2-21,78.6,70.4,61.8,68.6,64.9,56.4,99,83,51,30.14,30.03,15,2,15,0.00
2013-2-22,80.0,72.8,63.5,73.0,68.3,59.9,97,86,76,30.12,30.03,20,3,21,0.00
2013-2-23,86.5,76.5,67.6,72.7,68.8,64.2,95,78,56,30.06,29.90,24,3,24,0.01
2013-2-24,85.5,73.0,67.8,71.3,68.4,65.7,95,86,55,30.01,29.91,19,3,19,0.08
2013-2-25,85.0,76.0,69.5,73.5,70.3,66.8,97,84,56,29.94,29.80,19,3,19,0.00
2013-2-26,83.5,76.6,71.3,73.2,70.0,65.5,92,81,63,29.89,29.78,30,6,30,0.00
2013-2-27,75.0,68.1,62.2,65.6,61.7,55.0,91,80,63,29.99,29.87,12,2,12,0.01
2013-2-28,74.4,63.3,53.3,56.5,51.5,46.6,88,67,47,30.03,29.89,14,2,14,0.00
2013-3-1,68.2,59.5,55.2,51.0,46.2,40.1,76,62,40,30.00,29.91,16,3,16,0.00
2013-3-2,58.7,53.7,46.4,43.2,38.3,34.2,68,56,43,30.05,29.95,23,4,23,0.00
2013-3-3,59.0,48.3,39.7,39.2,34.7,30.5,77,60,43,30.18,29.98,24,5,25,0.00
2013-3-4,58.3,49.3,37.2,46.5,36.0,27.4,81,62,36,30.26,30.14,16,2,16,0.00
2013-3-5,76.8,61.0,45.3,60.4,50.2,39.8,90,69,43,30.21,30.05,15,2,15,0.00
2013-3-6,71.1,61.7,50.3,60.5,46.1,33.8,91,61,28,30.15,29.96,27,6,27,0.00
2013-3-7,62.6,54.1,44.2,51.1,43.3,32.9,81,67,59,30.22,30.10,13,3,13,0.00
2013-3-8,65.6,57.8,46.3,53.3,47.8,42.7,94,71,51,30.24,30.15,15,2,15,0.00
2013-3-9,69.6,61.9,50.9,56.7,51.9,46.1,90,71,56,30.25,30.13,12,2,12,0.00
2013-3-10,74.0,67.9,60.4,63.7,57.5,53.7,88,70,58,30.20,30.12,13,3,19,0.00
2013-3-11,75.6,69.6,61.7,65.6,59.8,55.5,84,71,58,30.15,29.97,22,4,22,0.00
2013-3-12,76.3,70.4,63.9,69.2,64.5,58.6,89,82,71,30.03,29.91,18,4,18,0.00
2013-3-13,67.5,60.9,52.9,59.0,52.2,45.8,90,74,49,30.17,30.01,19,3,19,0.01
2013-3-14,61.9,55.5,48.3,48.3,44.7,37.9,84,68,49,30.25,30.13,19,4,19,0.00
2013-3-15,65.0,56.3,45.4,51.3,45.3,39.3,81,67,53,30.30,30.18,13,2,13,0.00
2013-3-16,76.7,61.7,47.1,57.6,49.6,41.8,93,67,37,30.23,30.08,17,2,17,0.00
2013-3-17,75.1,65.5,52.6,61.5,55.6,47.0,87,71,56,30.19,30.04,19,2,19,0.00
2013-3-18,81.0,72.6,65.6,67.5,63.3,59.5,91,74,59,30.10,29.90,18,3,20,0.01
2013-3-19,79.3,70.3,64.5,67.9,65.1,62.1,96,84,67,30.04,29.91,11,1,15,0.01
2013-3-20,80.4,71.3,65.2,69.9,64.3,59.7,97,80,56,29.99,29.80,18,3,19,0.01
2013-3-21,66.9,61.4,54.8,60.4,48.7,38.2,87,65,39,29.98,29.84,17,3,17,0.01
2013-3-22,74.3,62.3,47.4,72.8,53.2,41.4,100,73,55,30.04,29.92,16,2,16,0.03
2013-3-23,87.8,76.5,67.8,74.7,69.0,25.7,97,79,58,30.02,29.78,20,3,20,0.10
2013-3-24,88.9,75.3,69.8,73.4,68.6,64.6,93,81,54,29.91,29.66,31,5,31,0.19
2013-3-25,76.7,69.6,56.8,70.1,54.6,38.4,94,64,30,30.04,29.74,18,4,19,0.01
2013-3-26,65.9,56.1,48.6,42.7,35.2,28.6,65,46,31,30.24,30.02,24,5,24,0.00
2013-3-27,59.7,51.9,43.2,44.6,38.4,31.9,73,60,46,30.31,30.20,15,3,17,0.00
2013-3-28,64.1,55.5,43.9,48.5,43.0,37.8,85,65,40,30.32,30.21,15,2,15,0.00
2013-3-29,69.3,60.6,50.0,59.9,48.4,44.3,88,66,50,30.35,30.24,16,2,16,0.00
2013-3-30,74.7,64.3,51.9,57.3,52.3,46.4,90,66,51,30.29,30.17,21,3,21,0.00
2013-3-31,80.6,68.8,56.7,66.4,59.1,50.5,88,72,50,30.22,30.04,22,4,22,0.00
2013-4-1,85.3,74.3,66.2,70.2,64.6,61.4,100,74,49,30.08,29.94,18,3,18,0.06
2013-4-2,75.6,70.7,64.0,67.8,64.2,60.2,93,80,60,30.11,30.00,12,2,12,0.00
2013-4-3,81.8,75.1,70.0,70.9,68.0,64.8,89,79,65,30.10,30.00,20,5,20,0.00
2013-4-4,74.8,71.6,67.1,71.5,68.5,64.7,94,90,84,30.08,29.91,18,4,20,0.21
2013-4-5,74.3,68.3,63.4,71.2,65.1,58.0,97,89,80,29.97,29.80,20,3,20,0.20
2013-4-6,74.4,66.6,56.6,65.4,60.1,53.1,90,80,64,30.14,29.95,20,4,20,0.00
2013-4-7,76.0,71.7,68.6,65.0,62.1,58.7,80,72,64,30.18,30.06,12,4,15,0.00
2013-4-8,77.5,70.3,60.4,66.9,62.9,56.2,96,78,64,30.19,30.07,16,2,16,0.00
2013-4-9,79.8,73.9,69.6,71.4,66.0,63.0,89,77,64,30.21,30.08,20,4,20,0.00
2013-4-10,81.4,75.5,69.7,73.8,69.3,64.8,90,82,69,30.15,30.03,21,5,21,0.00
2013-4-11,82.8,77.5,73.5,73.3,71.5,68.5,91,82,71,30.05,29.89,28,7,28,0.00
2013-4-12,90.8,81.5,74.8,75.4,72.4,68.2,93,75,54,29.95,29.84,23,5,25,0.00
2013-4-13,85.7,76.3,72.5,73.9,70.8,67.7,94,83,65,30.01,29.90,15,2,15,0.00
2013-4-14,85.3,77.7,73.8,76.4,73.6,70.9,95,87,72,30.01,29.88,22,5,22,1.28
2013-4-15,84.3,74.5,67.1,75.5,69.9,64.5,96,86,71,30.10,29.94,25,2,26,0.09
2013-4-16,80.8,76.8,73.1,74.3,71.8,67.9,96,85,76,30.18,30.05,16,4,16,0.00
2013-4-17,79.7,75.8,72.5,70.2,67.8,60.1,83,77,55,30.16,30.07,13,3,13,0.00
2013-4-18,85.0,77.5,69.3,74.2,70.3,65.1,93,79,67,30.09,30.01,19,4,19,0.00
2013-4-19,87.2,79.8,75.2,76.2,72.9,70.0,89,80,65,30.07,29.96,28,5,28,0.01
2013-4-20,78.3,72.4,68.2,75.4,68.6,64.0,96,88,83,30.13,29.98,19,3,19,0.10
2013-4-21,80.7,73.5,67.7,73.5,69.6,63.7,95,88,76,30.14,30.02,17,3,17,0.09
2013-4-22,76.8,72.5,70.2,71.1,68.7,65.7,96,88,74,30.09,29.99,15,2,15,0.02
2013-4-23,77.7,73.1,67.4,68.6,65.8,61.2,95,79,63,30.13,29.99,21,4,21,0.01
2013-4-24,79.6,74.7,70.8,66.0,63.5,60.4,74,68,57,30.18,30.06,15,3,15,0.00
2013-4-25,79.6,74.4,66.2,67.0,65.0,54.2,89,73,61,30.23,30.10,12,2,12,0.00
2013-4-26,78.8,74.0,66.4,71.2,66.6,61.9,90,78,70,30.27,30.16,13,2,13,0.00
2013-4-27,80.7,75.8,70.9,70.5,66.8,64.6,86,74,64,30.25,30.14,19,4,19,0.00
2013-4-28,82.5,76.6,72.9,68.4,65.2,60.7,75,68,59,30.17,30.05,19,6,19,0.00
2013-4-29,83.1,77.6,72.9,72.4,68.2,64.9,83,73,63,30.08,29.95,22,4,22,0.00
2013-4-30,80.0,74.8,70.5,73.9,70.5,67.8,94,87,75,30.04,29.96,16,2,16,0.30
2013-5-1,79.8,73.7,69.1,73.4,69.7,67.2,98,87,75,30.04,29.95,15,2,15,0.31
2013-5-2,76.0,71.9,66.2,71.5,69.2,64.5,98,91,83,29.98,29.84,17,4,17,1.35
2013-5-3,84.1,75.1,69.4,73.1,69.5,54.4,95,83,63,29.86,29.68,17,2,17,0.01
2013-5-4,84.8,75.6,68.5,70.9,68.3,65.4,92,79,59,29.82,29.69,14,2,14,0.00
2013-5-5,81.3,73.3,67.1,68.6,58.9,41.6,92,64,25,29.95,29.75,18,4,18,0.00
2013-5-6,81.8,71.5,61.7,75.1,58.3,52.5,100,64,45,30.03,29.92,17,3,17,0.00
2013-5-7,82.0,70.7,57.7,81.6,57.3,40.9,100,64,46,30.09,29.99,19,3,19,0.00
2013-5-8,80.3,71.6,62.1,66.3,61.9,56.7,90,72,52,30.16,30.04,9,2,15,0.00
2013-5-9,77.3,72.4,64.8,71.3,65.6,59.5,88,79,71,30.19,30.09,13,2,13,0.00
2013-5-10,86.7,77.9,70.8,75.7,71.3,67.1,96,80,62,30.17,30.05,19,3,19,0.14
2013-5-11,92.7,78.1,71.7,76.8,71.1,68.2,95,81,51,30.10,29.97,20,3,20,0.47
2013-5-12,87.1,77.7,71.2,76.6,72.2,68.3,95,84,65,30.06,29.97,21,2,21,0.06
2013-5-13,79.0,73.8,70.0,72.1,65.7,57.6,90,76,60,30.15,30.00,17,2,17,0.00
2013-5-14,77.7,74.0,70.6,64.2,57.9,52.6,64,57,51,30.23,30.12,13,4,13,0.00
2013-5-15,78.8,74.2,65.8,65.0,61.8,57.5,85,66,56,30.25,30.14,15,2,15,0.00
2013-5-16,80.5,74.2,65.5,68.4,63.5,59.7,89,70,59,30.17,30.08,16,3,16,0.00
2013-5-17,82.9,76.7,69.4,74.2,68.2,63.9,87,75,66,30.14,30.05,17,4,17,0.00
2013-5-18,85.0,78.4,70.1,77.2,71.2,60.9,93,79,69,30.15,30.07,17,4,17,0.00
2013-5-19,82.2,77.3,73.6,75.2,71.3,69.2,92,82,71,30.14,30.04,10,3,16,0.20
2013-5-20,79.1,75.3,72.3,72.9,71.2,69.2,95,87,75,30.12,30.02,10,1,15,0.35
2013-5-21,83.5,75.7,70.2,82.6,71.3,67.5,100,86,71,30.06,29.97,20,2,20,0.07
2013-5-22,81.8,75.4,69.9,78.1,71.6,67.2,100,88,79,30.01,29.93,17,2,17,0.17
2013-5-23,82.6,77.5,70.8,77.5,72.4,68.0,100,85,74,30.03,29.92,13,2,13,0.00
2013-5-24,86.5,79.5,71.3,77.4,72.0,67.1,93,78,58,30.11,29.97,11,2,11,0.00
2013-5-25,83.2,78.9,74.6,73.3,66.8,62.1,84,67,51,30.23,30.09,19,5,19,0.00
2013-5-26,79.5,75.5,69.8,78.1,64.1,59.8,98,68,63,30.25,30.16,14,3,14,0.00
2013-5-27,80.7,76.8,72.7,74.2,67.2,62.3,84,72,65,30.22,30.13,18,5,18,0.00
2013-5-28,84.0,78.3,73.6,84.0,72.0,60.2,100,81,72,30.17,30.10,23,7,23,0.21
2013-5-29,82.4,77.4,73.2,76.1,73.5,71.0,96,88,77,30.17,30.07,22,6,22,0.61
2013-5-30,83.2,79.1,76.4,75.4,72.4,69.0,90,80,70,30.15,30.06,25,8,25,0.01
2013-5-31,83.2,79.2,76.4,75.9,72.4,69.4,89,80,74,30.13,30.07,23,8,23,0.07
2013-6-1,85.1,80.1,76.8,76.7,74.3,71.4,89,83,72,30.09,30.01,23,6,23,0.01
2013-6-2,88.9,80.7,75.5,77.9,75.1,72.7,95,84,66,30.04,29.93,16,2,16,0.00
2013-6-3,87.6,80.3,75.3,77.2,74.2,72.1,93,82,67,30.05,29.93,16,2,16,0.00
2013-6-4,83.7,79.2,75.6,75.6,73.0,69.4,91,82,69,30.08,29.96,9,1,10,0.00
2013-6-5,84.6,79.8,77.0,77.2,74.9,70.0,92,85,75,30.05,29.94,15,3,15,0.03
2013-6-6,81.4,76.1,72.8,77.9,74.0,70.6,96,93,86,29.95,29.75,28,5,28,1.95
2013-6-7,90.0,80.7,73.5,78.1,74.2,70.9,96,82,65,29.99,29.81,21,4,21,0.00
2013-6-8,85.2,77.5,73.6,77.6,74.1,71.8,95,89,75,30.12,29.98,20,2,20,0.29
2013-6-9,87.2,80.1,73.4,77.8,74.6,71.0,99,84,68,30.15,30.07,20,4,20,0.00
2013-6-10,88.0,81.5,78.2,78.6,76.1,74.0,92,84,71,30.13,30.05,19,4,19,0.00
2013-6-11,87.5,81.1,77.3,79.4,76.4,73.5,95,86,75,30.12,30.03,14,2,14,0.00
2013-6-12,86.3,80.5,74.8,84.2,74.9,70.3,100,83,71,30.11,30.05,14,2,14,0.00
2013-6-13,92.2,82.3,74.2,79.1,73.5,67.4,91,76,59,30.08,29.94,19,2,19,0.00
2013-6-14,92.7,83.9,75.4,81.6,74.3,56.4,93,74,56,29.98,29.88,16,3,16,0.00
2013-6-15,85.8,81.2,76.2,77.7,74.9,71.6,90,81,71,30.09,29.94,19,3,19,0.00
2013-6-16,86.7,82.1,76.8,77.9,76.2,74.2,94,83,72,30.13,30.06,17,5,17,0.16
2013-6-17,89.8,83.9,77.7,78.9,76.4,73.7,90,79,63,30.12,30.02,17,3,17,0.00
2013-6-18,91.3,84.5,78.8,78.8,76.0,74.2,90,77,60,30.10,30.00,19,4,19,0.00
2013-6-19,91.3,82.0,72.3,78.3,73.6,67.1,91,76,55,30.10,30.00,29,4,29,0.14
2013-6-20,88.3,78.4,75.1,78.3,74.0,70.2,93,87,64,30.13,30.04,14,1,14,0.50
2013-6-21,83.3,77.3,72.9,78.1,73.3,69.8,98,88,72,30.18,30.05,15,0,15,0.10
2013-6-22,86.3,80.3,73.3,77.0,74.0,67.5,96,82,71,30.16,30.07,15,2,15,0.00
2013-6-23,87.3,81.2,75.9,77.6,74.7,71.0,90,81,69,30.19,30.08,16,3,16,0.00
2013-6-24,86.6,81.9,76.2,77.2,74.8,72.9,92,80,70,30.23,30.13,17,4,17,0.00
2013-6-25,85.8,82.2,78.6,77.5,75.4,74.0,86,80,73,30.19,30.09,17,3,17,0.00
2013-6-26,87.8,79.8,76.2,78.5,75.8,73.6,94,88,71,30.14,30.03,16,1,16,0.76
2013-6-27,89.2,81.4,73.5,78.3,75.0,71.4,96,82,66,30.09,29.98,14,2,16,0.01
2013-6-28,94.8,83.0,75.8,94.5,73.8,68.8,100,75,50,30.02,29.88,25,3,25,0.01
2013-6-29,93.0,81.2,74.3,78.2,74.1,68.1,93,80,57,29.93,29.85,20,3,20,0.48
2013-6-30,87.9,76.2,74.5,78.8,73.8,71.9,96,92,72,29.97,29.86,13,2,15,0.83
2013-7-1,88.2,77.3,73.9,78.9,74.3,71.0,95,91,70,30.08,29.92,25,2,27,1.08
2013-7-2,86.3,77.2,73.8,80.2,74.7,72.0,96,92,79,30.14,30.00,14,2,14,0.09
2013-7-3,87.8,80.7,75.7,78.9,75.5,73.1,95,85,69,30.18,30.08,27,4,27,0.09
2013-7-4,88.1,81.2,74.3,78.2,75.3,71.1,97,83,71,30.19,30.11,25,5,25,0.16
2013-7-5,87.8,81.3,75.2,77.9,75.4,71.4,94,83,70,30.20,30.10,22,5,22,0.12
2013-7-6,87.5,81.5,76.7,77.6,75.1,73.2,90,81,71,30.17,30.09,19,4,20,0.09
2013-7-7,86.3,82.1,76.8,77.5,75.6,73.1,90,81,72,30.17,30.09,17,4,17,0.01
2013-7-8,86.2,81.7,76.5,77.4,75.2,72.6,93,81,70,30.20,30.12,15,2,16,0.01
2013-7-9,83.2,79.5,75.2,76.5,74.2,71.7,93,84,77,30.22,30.09,17,1,17,0.19
2013-7-10,84.8,80.6,75.2,76.4,74.2,71.8,92,81,69,30.13,30.02,16,3,16,0.00
2013-7-11,89.2,81.9,76.8,78.9,74.6,71.2,91,79,68,30.09,29.97,17,2,17,0.00
2013-7-12,89.7,78.8,74.3,79.2,73.5,62.9,95,85,63,30.00,29.91,15,1,15,0.85
2013-7-13,85.8,77.4,73.4,78.8,73.6,70.9,95,88,72,30.04,29.94,17,2,17,0.03
2013-7-14,83.7,76.6,72.6,76.2,72.5,69.5,94,87,76,30.13,30.01,15,2,18,0.14
2013-7-15,81.8,77.2,71.9,76.7,73.3,69.8,96,88,79,30.15,30.06,15,2,15,0.00
2013-7-16,84.9,77.7,74.2,76.9,73.4,71.2,95,87,73,30.20,30.10,13,2,22,0.69
2013-7-17,83.0,77.8,74.2,77.2,74.2,71.4,96,89,76,30.18,30.10,21,2,21,0.27
2013-7-18,86.2,78.4,74.4,76.9,74.1,72.3,96,87,72,30.16,30.08,14,2,14,0.02
2013-7-19,87.5,81.8,74.5,86.5,76.3,68.5,100,84,74,30.16,30.07,19,4,19,0.00
2013-7-20,86.5,78.7,74.0,80.2,75.3,69.7,97,90,79,30.15,30.05,15,1,15,0.12
2013-7-21,90.4,79.5,73.9,79.6,74.5,68.0,93,85,67,30.17,30.06,25,2,25,0.19
2013-7-22,93.3,81.0,73.3,78.9,73.5,70.8,95,79,54,30.15,30.09,13,2,13,0.00
2013-7-23,93.1,82.9,76.6,93.1,74.9,61.4,100,78,57,30.13,29.99,15,2,15,0.00
2013-7-24,89.4,80.0,74.6,77.9,74.9,70.7,93,85,66,30.05,29.92,22,2,22,0.22
2013-7-25,84.6,79.3,76.2,78.8,75.5,73.0,94,88,80,30.02,29.91,14,2,15,0.49
2013-7-26,83.5,79.3,75.3,77.5,75.5,73.0,96,88,78,30.04,29.96,11,2,11,0.05
2013-7-27,87.7,81.6,75.7,79.8,75.9,67.0,96,83,70,30.03,29.94,17,2,17,0.01
2013-7-28,87.2,80.2,73.2,78.2,75.3,70.0,98,85,73,30.10,29.95,34,1,34,0.94
2013-7-29,86.3,80.8,74.6,79.6,75.8,71.6,96,85,77,30.19,30.05,11,2,12,0.00
2013-7-30,85.8,81.6,76.7,79.7,76.8,74.1,96,86,75,30.22,30.13,13,2,13,0.00
2013-7-31,89.5,83.8,78.8,79.4,77.0,74.9,94,81,65,30.17,30.05,16,2,16,0.00
2013-8-1,89.4,83.5,77.5,77.9,75.6,73.3,90,78,62,30.10,30.00,12,2,17,0.00
2013-8-2,85.3,80.8,77.4,76.9,74.9,73.3,90,82,72,30.06,29.96,14,1,14,0.00
2013-8-3,84.9,79.4,74.7,78.8,75.0,72.0,94,87,72,30.15,30.07,16,2,16,0.08
2013-8-4,92.9,81.5,75.2,80.8,76.1,73.3,97,84,63,30.12,30.01,12,2,14,0.01
2013-8-5,89.6,80.5,75.7,80.4,76.2,72.9,95,87,69,30.06,29.95,15,2,15,0.44
2013-8-6,86.7,80.6,74.6,81.4,76.2,72.1,95,87,75,30.01,29.92,11,1,11,0.00
2013-8-7,89.7,84.0,78.8,79.9,77.6,75.2,96,82,67,30.02,29.93,18,4,18,0.01
2013-8-8,90.3,84.5,79.7,80.4,77.0,75.1,89,79,67,30.08,29.97,19,4,19,0.00
2013-8-9,89.0,84.0,80.4,78.8,75.7,72.4,85,76,64,30.11,29.99,20,5,20,0.00
2013-8-10,90.5,83.9,78.1,78.8,76.5,42.8,92,79,43,30.18,30.08,17,3,17,0.00
2013-8-11,88.2,83.6,80.2,87.9,76.8,68.1,100,80,68,30.20,30.11,15,3,15,0.00
2013-8-12,86.1,81.9,75.9,86.0,75.1,54.2,100,80,51,30.16,30.06,12,2,12,0.00
2013-8-13,90.3,83.2,76.9,89.1,76.3,73.2,100,80,68,30.10,29.99,16,2,16,0.00
2013-8-14,91.4,86.0,77.8,79.4,76.1,65.3,89,73,55,30.06,29.95,18,4,18,0.00
2013-8-15,89.7,83.7,78.0,78.4,76.1,73.5,89,78,64,30.09,29.98,16,2,16,0.00
2013-8-16,90.3,84.0,79.2,79.2,76.7,73.2,88,79,60,30.10,30.01,17,2,17,0.00
2013-8-17,91.2,85.1,80.7,79.9,78.0,75.8,90,80,65,30.12,30.04,19,3,19,0.00
2013-8-18,90.8,84.6,79.4,81.6,77.3,74.5,88,79,67,30.15,30.05,19,3,19,0.00
2013-8-19,92.0,84.9,80.5,91.0,77.5,74.9,100,79,62,30.13,30.01,18,3,18,0.00
2013-8-20,89.2,82.4,77.9,78.9,76.5,73.7,92,83,70,30.13,30.02,18,2,18,0.13
2013-8-21,88.5,82.5,77.9,80.0,77.5,67.9,95,85,72,30.15,30.06,19,3,19,0.55
2013-8-22,88.0,82.3,77.8,84.0,78.1,72.2,95,88,73,30.12,30.03,16,3,16,0.02
2013-8-23,87.2,82.8,77.5,82.0,77.4,74.1,95,84,73,30.06,29.99,19,3,19,0.52
2013-8-24,87.0,81.4,76.9,79.6,76.4,73.9,97,85,70,30.13,30.01,20,2,20,0.12
2013-8-25,83.2,80.0,77.4,77.8,75.7,73.3,95,87,75,30.20,30.08,11,1,11,0.07
2013-8-26,85.5,81.4,76.2,84.9,75.7,50.2,100,83,30,30.16,30.04,16,2,16,0.00
2013-8-27,85.8,82.2,74.8,74.8,72.6,70.3,94,73,65,30.09,30.02,14,4,16,0.24
2013-8-28,85.5,81.3,78.7,77.6,73.7,70.9,85,78,69,30.09,29.99,13,2,13,0.02
2013-8-29,87.3,81.6,75.4,79.0,74.3,71.1,90,79,69,30.07,29.97,13,2,13,0.02
2013-8-30,90.0,84.8,78.2,79.7,76.0,73.1,91,75,65,30.04,29.94,14,2,14,0.00
2013-8-31,90.0,81.4,76.4,78.6,74.4,69.9,90,80,63,30.03,29.92,22,3,22,0.00
2013-9-1,89.4,80.7,74.9,87.7,73.5,44.6,100,79,66,30.04,29.95,14,1,14,0.00
2013-9-2,90.2,78.8,74.0,80.4,73.3,70.2,93,84,65,30.08,29.94,28,1,28,1.28
2013-9-3,87.5,79.8,73.2,79.6,74.6,70.9,95,85,70,30.06,29.96,12,1,12,0.01
2013-9-4,87.2,81.6,76.5,82.3,76.9,73.3,93,86,79,30.12,29.99,11,1,11,0.00
2013-9-5,88.1,83.6,79.1,82.1,78.2,75.8,92,84,76,30.12,30.04,12,2,12,0.00
2013-9-6,87.3,82.2,77.7,80.8,77.0,74.2,93,85,71,30.09,29.99,17,2,17,0.02
2013-9-7,85.2,80.0,73.4,78.5,75.1,70.5,96,85,74,30.04,29.94,9,1,12,0.93
2013-9-8,85.5,79.9,74.7,77.4,74.4,71.8,95,84,73,30.00,29.90,12,1,12,0.03
2013-9-9,86.3,80.3,73.7,77.2,74.3,71.2,99,82,68,30.05,29.93,15,3,15,0.66
2013-9-10,86.6,82.3,77.7,77.2,74.0,71.3,87,76,67,30.12,30.00,16,4,23,0.02
2013-9-11,83.8,79.8,73.8,78.4,74.7,69.7,93,85,78,30.11,30.02,19,2,19,0.53
2013-9-12,80.3,77.9,75.3,76.3,74.5,72.7,94,89,83,30.06,29.92,11,0,11,0.04
2013-9-13,85.5,79.5,72.9,85.5,74.1,62.2,100,84,46,29.94,29.84,10,1,12,0.00
2013-9-14,87.8,82.3,76.2,79.3,75.8,73.0,93,81,69,30.01,29.85,13,2,13,0.00
2013-9-15,87.5,80.4,73.5,80.3,75.4,70.5,95,85,76,30.10,29.98,17,2,17,0.96
2013-9-16,85.3,79.1,73.7,78.6,74.7,71.6,96,86,77,30.11,30.01,28,3,28,0.23
2013-9-17,84.7,78.8,74.8,81.0,74.4,67.1,95,87,76,30.09,29.98,21,3,21,0.56
2013-9-18,84.2,80.0,75.7,78.8,75.1,73.1,95,85,77,30.05,29.96,17,3,20,0.25
2013-9-19,83.3,78.8,74.8,77.1,73.9,69.8,95,85,74,30.06,29.97,14,3,14,0.50
2013-9-20,84.2,80.2,74.8,71.6,69.8,68.2,86,71,61,30.05,29.94,15,2,15,0.01
2013-9-21,84.7,79.8,74.0,74.0,71.8,58.1,92,77,65,29.97,29.81,12,2,12,0.01
2013-9-22,91.0,81.6,74.6,77.4,73.5,64.8,91,77,59,29.90,29.78,15,2,16,0.01
2013-9-23,88.3,78.2,74.4,82.7,74.4,40.6,97,88,69,30.02,29.86,13,1,13,2.69
2013-9-24,85.2,78.6,75.3,79.9,75.4,70.8,97,90,79,30.00,29.86,11,2,14,0.01
2013-9-25,85.2,78.9,74.0,75.5,72.5,70.6,93,81,65,29.90,29.81,20,3,20,0.01
2013-9-26,90.0,81.1,75.4,78.5,74.9,72.2,94,82,64,29.87,29.79,19,4,19,0.01
2013-9-27,83.0,77.1,72.2,78.5,72.2,28.7,97,85,65,29.97,29.84,17,2,17,0.08
2013-9-28,84.7,78.5,72.5,74.9,71.6,67.8,96,80,65,30.02,29.91,16,4,16,0.03
2013-9-29,83.8,79.2,73.0,73.8,70.8,68.4,92,76,66,30.01,29.93,12,2,12,0.01
2013-9-30,83.8,78.2,71.9,74.3,71.5,68.3,93,80,70,30.05,29.93,12,2,12,0.00
2013-10-1,84.8,79.6,73.2,74.4,71.9,69.4,92,78,67,30.09,29.99,14,2,14,0.00
2013-10-2,84.0,80.4,78.0,73.6,71.7,69.5,80,75,69,30.09,30.02,14,3,14,0.01
2013-10-3,85.3,80.5,74.0,75.0,71.7,68.5,86,75,67,30.11,29.99,14,2,14,0.00
2013-10-4,84.5,80.5,75.7,73.6,71.8,69.7,87,75,66,30.12,30.03,10,2,10,0.00
2013-10-5,85.1,80.5,74.2,75.9,72.9,69.2,89,78,68,30.08,29.99,12,2,12,0.00
2013-10-6,86.8,81.2,75.2,76.0,73.7,70.6,90,78,66,30.01,29.91,13,2,13,0.00
2013-10-7,87.3,77.9,74.2,76.4,72.9,71.3,100,85,66,29.92,29.82,20,3,20,0.24
2013-10-8,89.4,80.1,74.1,77.0,73.1,70.6,95,81,56,29.95,29.82,15,3,15,0.01
2013-10-9,81.8,77.0,74.0,74.8,72.5,65.9,96,86,75,30.04,29.90,20,3,20,0.11
2013-10-10,81.4,75.4,68.7,74.3,68.8,65.0,95,80,70,30.07,29.98,17,2,17,0.00
2013-10-11,81.8,75.2,66.1,68.7,65.8,61.8,90,73,58,30.07,29.97,11,1,11,0.00
2013-10-12,85.8,76.5,69.6,71.3,68.0,65.4,91,76,54,30.08,29.98,12,1,12,0.00
2013-10-13,82.4,75.8,67.6,69.4,66.2,63.4,89,73,54,30.11,30.01,13,1,13,0.00
2013-10-14,81.5,75.9,69.9,73.5,69.0,65.3,90,79,71,30.06,29.96,18,2,18,0.00
2013-10-15,81.4,75.1,69.3,77.2,69.8,66.8,95,84,69,30.01,29.91,11,1,11,0.00
2013-10-16,81.8,76.6,71.4,74.7,70.9,68.4,93,83,71,30.00,29.92,12,2,12,0.00
2013-10-17,82.9,79.5,70.9,76.0,72.3,67.8,93,79,69,30.01,29.93,11,2,11,0.01
2013-10-18,83.8,78.5,71.8,76.4,72.2,68.1,92,81,72,30.03,29.93,14,2,14,0.00
2013-10-19,87.3,80.2,72.6,76.4,73.2,68.5,92,80,65,30.00,29.90,16,2,16,0.01
2013-10-20,85.1,79.9,76.3,84.9,74.8,72.5,100,85,72,30.00,29.89,12,2,12,0.07
2013-10-21,86.7,80.7,75.0,78.2,75.3,72.2,94,84,72,30.04,29.93,12,2,12,0.01
2013-10-22,91.5,83.0,77.5,77.8,75.3,72.6,91,78,58,29.99,29.84,14,2,14,0.00
2013-10-23,79.9,76.9,70.8,74.1,69.9,62.3,89,79,67,30.01,29.82,10,2,13,0.00
2013-10-24,76.4,70.7,64.7,64.3,60.1,54.9,79,69,63,30.16,29.99,13,2,13,0.00
2013-10-25,77.8,71.1,64.0,66.1,61.8,59.1,88,73,61,30.23,30.13,17,3,17,0.00
2013-10-26,77.2,72.2,65.2,76.4,60.1,56.6,100,66,55,30.22,30.11,13,2,13,0.00
2013-10-27,76.1,68.8,60.5,65.4,60.8,57.0,91,76,59,30.15,30.07,12,1,12,0.00
2013-10-28,80.8,73.3,65.1,71.5,65.1,60.2,88,76,64,30.19,30.09,11,2,14,0.00
2013-10-29,82.0,76.2,68.0,70.7,67.1,61.8,90,74,61,30.24,30.13,16,3,16,0.00
2013-10-30,82.1,77.9,71.0,69.5,67.8,65.8,86,71,63,30.25,30.14,14,3,14,0.00
2013-10-31,84.5,79.3,74.5,72.7,69.2,65.7,83,72,63,30.17,30.03,18,4,18,0.00
2013-11-1,89.5,80.9,74.0,75.2,71.7,68.6,91,75,55,30.06,29.90,17,2,17,0.00
2013-11-2,86.2,75.4,67.6,72.7,67.9,62.0,94,78,57,29.98,29.84,20,3,20,0.00
2013-11-3,76.5,71.1,63.7,62.5,57.5,53.2,82,63,46,30.11,29.93,19,4,19,0.00
2013-11-4,78.5,75.3,70.7,67.0,61.7,53.5,87,63,50,30.17,30.07,28,8,28,0.02
2013-11-5,81.7,77.0,72.4,72.0,68.6,64.6,86,76,67,30.16,30.09,24,7,28,0.04
2013-11-6,82.5,77.3,73.7,74.7,68.0,59.8,91,73,61,30.13,30.05,14,3,14,0.00
2013-11-7,78.7,74.2,70.1,78.2,69.5,60.2,100,86,75,30.07,29.97,12,1,12,0.00
2013-11-8,78.3,73.3,68.1,71.0,67.6,63.9,95,83,74,30.12,29.98,20,5,20,0.00
2013-11-9,79.2,75.5,74.0,69.6,67.8,66.0,82,77,71,30.20,30.08,19,5,19,0.00
2013-11-10,80.5,75.0,71.7,71.1,68.6,66.6,90,81,71,30.18,30.10,15,1,15,0.00
2013-11-11,80.2,75.2,69.9,78.9,69.1,66.7,100,82,70,30.18,30.09,13,2,13,0.00
2013-11-12,78.3,73.4,69.8,73.5,68.2,65.4,95,84,76,30.12,30.01,12,2,12,0.00
2013-11-13,71.6,68.6,66.8,66.2,58.3,49.2,84,70,53,30.29,30.04,23,7,29,0.00
2013-11-14,75.0,71.0,67.1,61.6,57.4,52.0,70,62,53,30.31,30.18,22,6,23,0.00
2013-11-15,78.3,74.5,71.1,68.5,64.8,58.7,80,72,63,30.21,30.09,16,4,16,0.00
2013-11-16,82.0,75.4,70.3,81.6,68.4,46.8,100,79,44,30.15,30.04,17,3,17,0.05
2013-11-17,83.3,77.8,72.5,73.1,71.2,69.7,92,81,67,30.12,30.03,19,4,19,0.01
2013-11-18,86.1,77.1,70.5,75.8,71.3,67.8,93,83,63,30.05,29.94,10,1,10,0.00
2013-11-19,76.7,73.5,70.1,71.8,68.6,66.2,93,85,73,29.99,29.89,15,1,15,0.00
2013-11-20,77.9,74.7,71.1,72.8,70.8,67.9,95,88,78,30.12,29.95,18,5,18,0.82
2013-11-21,78.0,75.0,72.1,73.1,70.5,65.8,97,86,76,30.20,30.09,23,5,23,5.47
2013-11-22,79.8,76.3,74.2,70.8,67.9,55.3,85,75,68,30.22,30.12,19,5,19,0.00
2013-11-23,79.8,74.7,68.2,70.8,66.3,63.5,87,75,65,30.14,30.02,12,1,12,0.00
2013-11-24,74.8,69.4,66.6,67.2,63.5,56.5,95,82,65,30.23,30.01,23,5,23,0.04
2013-11-25,74.2,71.1,68.9,67.1,60.5,55.3,90,70,59,30.26,30.09,22,7,22,0.01
2013-11-26,81.6,75.8,70.6,74.4,70.8,66.6,91,85,75,30.09,29.79,25,6,25,0.05
2013-11-27,75.3,68.6,51.0,73.2,61.2,44.3,94,78,59,30.17,29.74,24,6,24,0.01
2013-11-28,68.7,56.5,42.7,58.0,48.6,36.6,84,75,60,30.32,30.16,17,4,17,0.00
2013-11-29,73.1,66.5,57.1,62.5,58.8,52.6,92,77,59,30.34,30.26,18,3,18,0.05
2013-11-30,76.7,71.1,62.3,66.6,64.1,60.0,95,79,65,30.28,30.17,19,5,19,0.08
2013-12-1,70.3,67.4,64.8,68.0,65.4,63.3,97,94,86,30.18,29.97,13,1,13,0.53
2013-12-2,70.8,65.8,61.1,65.0,62.2,57.2,98,89,75,29.98,29.82,12,1,12,0.01
2013-12-3,77.5,69.0,62.6,64.9,61.9,51.0,91,79,61,30.03,29.90,11,1,11,0.00
2013-12-4,83.6,72.5,63.1,79.9,65.3,55.2,100,79,54,30.12,30.00,12,1,12,0.00
2013-12-5,80.6,73.2,64.9,78.9,67.4,60.9,100,82,69,30.20,30.11,10,2,14,0.00
2013-12-6,78.5,73.3,69.2,72.1,68.9,65.8,96,86,79,30.23,30.12,13,2,13,0.04
2013-12-7,78.5,72.3,65.8,71.7,67.7,62.6,94,86,77,30.26,30.18,6,0,8,0.00
2013-12-8,81.1,75.8,71.3,71.2,69.3,67.2,91,81,67,30.26,30.15,20,3,20,0.01
2013-12-9,82.7,74.9,69.2,72.1,68.3,64.1,95,81,62,30.22,30.13,20,3,20,0.01
2013-12-10,84.5,74.8,64.6,71.9,66.7,58.2,93,77,55,30.20,30.09,13,2,13,0.00
2013-12-11,79.7,74.2,68.1,75.9,69.3,59.9,94,85,76,30.25,30.17,12,2,12,0.00
2013-12-12,70.8,67.5,65.8,68.7,60.7,53.4,97,80,61,30.29,30.18,21,4,22,0.00
2013-12-13,74.1,70.5,67.5,63.5,58.2,54.1,75,65,56,30.27,30.14,16,5,16,0.00
2013-12-14,79.4,74.8,72.0,73.4,69.0,63.4,89,82,75,30.16,29.98,22,5,22,0.08
2013-12-15,76.3,70.8,66.5,73.2,66.8,58.8,95,87,75,30.12,29.93,18,3,18,0.00
2013-12-16,66.4,61.1,54.2,59.7,55.1,49.5,88,81,71,30.22,30.09,14,3,16,0.00
2013-12-17,71.3,61.8,52.8,63.4,56.2,48.6,95,82,68,30.24,30.14,12,2,12,0.00
2013-12-18,67.5,60.3,51.7,55.7,50.8,44.7,88,72,54,30.29,30.18,13,2,13,0.00
2013-12-19,74.5,63.8,52.4,60.6,55.2,47.2,91,74,59,30.29,30.20,13,2,13,0.00
2013-12-20,79.2,69.0,58.1,67.4,61.1,53.6,93,77,57,30.25,30.14,18,2,18,0.00
2013-12-21,80.9,74.6,68.2,73.7,70.3,64.8,95,86,78,30.19,30.09,20,3,20,0.00
2013-12-22,82.8,76.3,71.0,74.3,71.1,58.8,94,84,70,30.19,30.10,26,3,26,0.00
2013-12-23,83.9,76.3,71.5,76.3,70.7,66.3,93,83,68,30.21,30.11,12,3,15,0.00
2013-12-24,72.6,67.1,62.3,69.5,61.1,51.1,96,82,66,30.24,30.12,19,3,19,0.05
2013-12-25,73.7,70.2,66.8,61.4,58.9,54.7,73,68,61,30.24,30.16,18,5,18,0.00
2013-12-26,74.1,69.3,64.6,67.9,64.3,59.6,93,84,71,30.22,30.10,14,2,14,0.00
2013-12-27,75.5,70.4,67.3,70.3,67.7,64.9,97,91,81,30.25,30.14,12,2,12,0.03
2013-12-28,77.0,73.0,68.4,71.9,68.8,66.0,94,87,78,30.24,30.05,20,4,20,0.36
2013-12-29,80.5,75.3,72.2,74.6,71.2,68.7,95,87,76,30.06,29.90,13,4,19,0.06
2013-12-30,73.4,66.2,59.9,69.0,62.1,55.1,92,87,73,30.20,29.99,13,2,13,0.00
2013-12-31,71.0,67.4,63.0,62.2,59.4,55.6,85,76,67,30.30,30.15,14,3,14,0.00
2014-1-1,71.5,69.6,67.4,69.9,66.3,61.3,97,90,72,30.25,30.05,8,2,12,0.44
2014-1-2,82.7,72.9,64.3,72.0,67.4,62.9,98,84,64,30.06,29.84,23,4,23,0.23